Time;durP1;ratioP1;P1;durP2;ratioP2;P2;SDS_P1;SDS_P2;PMS_P1;PMS_P2;Temp;Humidity;BMP_temperature;BMP_pressure;BME280_temperature;BME280_humidity;BME280_pressure;Samples;Min_cycle;Max_cycle;Signal;HPM_P1;HPM_P2
2021/08/14 00:01:02;;;;;;;13.32;8.40;;;;;;;;;;5074163;28;20232;-69
2021/08/14 00:03:30;;;;;;;18.30;8.85;;;;;;;;;;5072412;28;20039;-69
2021/08/14 00:05:56;;;;;;;19.05;9.18;;;;;;;;;;5072546;28;20116;-69
2021/08/14 00:08:22;;;;;;;19.38;9.00;;;;;;;;;;5076760;28;20362;-69
2021/08/14 00:10:48;;;;;;;13.85;8.27;;;;;;;;;;5076252;28;20023;-70
2021/08/14 00:13:15;;;;;;;14.27;7.72;;;;;;;;;;5071606;28;20119;-69
2021/08/14 00:15:41;;;;;;;14.07;8.20;;;;;;;;;;5075103;28;20081;-71
2021/08/14 00:18:07;;;;;;;19.45;8.27;;;;;;;;;;5070838;28;20044;-69
2021/08/14 00:20:33;;;;;;;18.88;8.15;;;;;;;;;;5075703;28;20028;-70
2021/08/14 00:23:00;;;;;;;15.15;8.05;;;;;;;;;;5073438;28;20054;-69
2021/08/14 00:25:30;;;;;;;12.27;8.13;;;;;;;;;;5073900;28;20103;-69
2021/08/14 00:27:56;;;;;;;11.20;7.68;;;;;;;;;;5072294;28;20417;-69
2021/08/14 00:30:23;;;;;;;19.17;7.75;;;;;;;;;;5076138;28;20085;-69
2021/08/14 00:32:51;;;;;;;10.23;7.60;;;;;;;;;;5071644;28;20071;-70
2021/08/14 00:35:17;;;;;;;10.82;7.38;;;;;;;;;;5070330;28;20016;-69
2021/08/14 00:37:43;;;;;;;13.60;7.40;;;;;;;;;;5074487;28;20404;-69
2021/08/14 00:40:10;;;;;;;22.60;8.85;;;;;;;;;;5070588;28;20376;-69
2021/08/14 00:42:36;;;;;;;16.90;8.30;;;;;;;;;;5072131;28;20012;-69
2021/08/14 00:45:03;;;;;;;13.93;8.25;;;;;;;;;;5076321;28;20056;-73
2021/08/14 00:47:29;;;;;;;12.93;8.05;;;;;;;;;;5076951;28;20028;-69
2021/08/14 00:49:55;;;;;;;14.25;8.43;;;;;;;;;;5073625;28;20024;-69
2021/08/14 00:52:22;;;;;;;11.43;7.50;;;;;;;;;;5075762;28;20035;-70
2021/08/14 00:54:49;;;;;;;14.65;7.72;;;;;;;;;;5071803;28;20030;-73
2021/08/14 00:57:18;;;;;;;15.80;7.68;;;;;;;;;;5076668;28;20400;-69
2021/08/14 00:59:47;;;;;;;14.02;7.38;;;;;;;;;;5073823;28;20449;-69
2021/08/14 01:02:14;;;;;;;13.60;7.40;;;;;;;;;;5077281;28;20032;-71
2021/08/14 01:04:40;;;;;;;12.50;7.53;;;;;;;;;;5072327;28;20492;-69
2021/08/14 01:07:06;;;;;;;14.30;7.05;;;;;;;;;;5075074;28;20519;-69
2021/08/14 01:09:32;;;;;;;12.57;7.75;;;;;;;;;;5077459;28;20034;-69
2021/08/14 01:12:02;;;;;;;20.90;8.73;;;;;;;;;;5072572;28;20485;-69
2021/08/14 01:14:28;;;;;;;13.98;7.18;;;;;;;;;;5076988;28;20031;-70
2021/08/14 01:16:55;;;;;;;12.25;7.70;;;;;;;;;;5071389;28;20624;-69
2021/08/14 01:19:21;;;;;;;21.58;8.05;;;;;;;;;;5077266;28;20139;-69
2021/08/14 01:21:48;;;;;;;14.70;8.02;;;;;;;;;;5074124;28;20067;-70
2021/08/14 01:24:14;;;;;;;17.38;7.60;;;;;;;;;;5075392;28;20120;-69
2021/08/14 01:26:42;;;;;;;12.48;7.68;;;;;;;;;;5077804;28;20099;-70
2021/08/14 01:29:09;;;;;;;12.50;7.43;;;;;;;;;;5072835;28;20028;-69
2021/08/14 01:31:35;;;;;;;15.02;7.22;;;;;;;;;;5073787;28;20038;-69
2021/08/14 01:34:01;;;;;;;13.00;7.65;;;;;;;;;;5073021;28;20074;-70
2021/08/14 01:36:27;;;;;;;14.65;8.05;;;;;;;;;;5077965;28;20031;-69
2021/08/14 01:38:54;;;;;;;13.75;7.78;;;;;;;;;;5074060;28;20020;-69
2021/08/14 01:41:21;;;;;;;11.00;7.63;;;;;;;;;;5075301;28;20025;-73
2021/08/14 01:43:50;;;;;;;11.93;7.72;;;;;;;;;;5075030;28;20008;-69
2021/08/14 01:46:16;;;;;;;12.85;7.53;;;;;;;;;;5072755;28;20020;-69
2021/08/14 01:48:42;;;;;;;11.50;7.90;;;;;;;;;;5074264;28;20031;-69
2021/08/14 01:51:08;;;;;;;12.18;8.27;;;;;;;;;;5072246;28;20024;-70
2021/08/14 01:53:34;;;;;;;12.10;7.65;;;;;;;;;;5077462;28;20040;-70
2021/08/14 01:56:01;;;;;;;14.85;7.95;;;;;;;;;;5073797;28;20488;-69
2021/08/14 01:58:27;;;;;;;16.30;8.23;;;;;;;;;;5072992;28;20549;-71
2021/08/14 02:00:53;;;;;;;11.63;7.80;;;;;;;;;;5075823;28;20536;-70
2021/08/14 02:03:19;;;;;;;13.60;7.43;;;;;;;;;;5072119;28;20039;-69
2021/08/14 02:05:45;;;;;;;10.98;7.30;;;;;;;;;;5073647;28;20032;-73
2021/08/14 02:08:12;;;;;;;8.70;7.35;;;;;;;;;;5071955;28;20143;-71
2021/08/14 02:10:38;;;;;;;12.65;6.85;;;;;;;;;;5075557;28;20142;-69
2021/08/14 02:13:04;;;;;;;10.85;6.57;;;;;;;;;;5074612;28;20037;-70
2021/08/14 02:15:30;;;;;;;10.52;7.50;;;;;;;;;;5074113;28;20024;-68
2021/08/14 02:17:56;;;;;;;9.85;7.55;;;;;;;;;;5072493;28;20156;-70
2021/08/14 02:20:22;;;;;;;12.18;7.30;;;;;;;;;;5072475;28;20206;-72
2021/08/14 02:22:48;;;;;;;12.32;7.68;;;;;;;;;;5074746;28;20020;-72
2021/08/14 02:25:15;;;;;;;9.63;7.28;;;;;;;;;;5073482;28;20502;-69
2021/08/14 02:27:41;;;;;;;13.65;8.07;;;;;;;;;;5075743;28;20029;-71
2021/08/14 02:30:07;;;;;;;10.63;7.13;;;;;;;;;;5069242;28;20031;-69
2021/08/14 02:32:33;;;;;;;13.93;7.57;;;;;;;;;;5076996;28;20089;-69
2021/08/14 02:34:59;;;;;;;9.48;6.82;;;;;;;;;;5073842;28;20094;-70
2021/08/14 02:37:26;;;;;;;11.05;6.95;;;;;;;;;;5074560;28;20020;-72
2021/08/14 02:39:52;;;;;;;11.50;6.75;;;;;;;;;;5074301;28;20016;-70
2021/08/14 02:42:18;;;;;;;8.65;6.82;;;;;;;;;;5073713;28;20020;-69
2021/08/14 02:44:44;;;;;;;13.27;6.65;;;;;;;;;;5071145;28;20074;-69
2021/08/14 02:47:10;;;;;;;10.57;6.20;;;;;;;;;;5073824;28;20024;-71
2021/08/14 02:49:36;;;;;;;8.50;7.03;;;;;;;;;;5072411;28;20025;-72
2021/08/14 02:52:02;;;;;;;10.13;6.50;;;;;;;;;;5073561;28;20373;-71
2021/08/14 02:54:29;;;;;;;9.00;6.80;;;;;;;;;;5073663;28;20020;-69
2021/08/14 02:56:55;;;;;;;13.35;6.68;;;;;;;;;;5072076;28;20025;-69
2021/08/14 02:59:21;;;;;;;10.27;7.40;;;;;;;;;;5072451;28;20301;-69
2021/08/14 03:01:47;;;;;;;11.20;6.88;;;;;;;;;;5071067;28;20271;-69
2021/08/14 03:04:13;;;;;;;11.40;7.18;;;;;;;;;;5069433;28;20464;-69
2021/08/14 03:06:39;;;;;;;11.13;6.78;;;;;;;;;;5067571;28;20357;-69
2021/08/14 03:09:08;;;;;;;8.50;6.30;;;;;;;;;;5071064;28;20028;-70
2021/08/14 03:11:34;;;;;;;14.60;7.18;;;;;;;;;;5063968;28;20056;-68
2021/08/14 03:14:00;;;;;;;12.15;7.38;;;;;;;;;;5069944;28;20073;-69
2021/08/14 03:16:27;;;;;;;10.70;7.18;;;;;;;;;;5066852;28;20021;-69
2021/08/14 03:18:53;;;;;;;13.25;7.75;;;;;;;;;;5069939;28;20048;-69
2021/08/14 03:21:19;;;;;;;10.13;7.35;;;;;;;;;;5069652;28;20027;-70
2021/08/14 03:23:45;;;;;;;11.32;7.05;;;;;;;;;;5072257;28;20033;-69
2021/08/14 03:26:11;;;;;;;9.75;7.43;;;;;;;;;;5075250;28;20020;-70
2021/08/14 03:28:37;;;;;;;10.15;7.07;;;;;;;;;;5069507;28;20070;-70
2021/08/14 03:31:04;;;;;;;8.98;7.32;;;;;;;;;;5072627;28;20028;-68
2021/08/14 03:33:30;;;;;;;13.68;8.15;;;;;;;;;;5070132;28;20108;-69
2021/08/14 03:35:56;;;;;;;8.50;6.97;;;;;;;;;;5073801;28;20090;-69
2021/08/14 03:38:22;;;;;;;12.95;7.38;;;;;;;;;;5064962;28;20282;-70
2021/08/14 03:40:48;;;;;;;8.43;6.28;;;;;;;;;;5067093;28;20384;-69
2021/08/14 03:43:18;;;;;;;8.85;6.80;;;;;;;;;;5072083;28;20032;-69
2021/08/14 03:45:44;;;;;;;8.48;7.13;;;;;;;;;;5070492;28;20376;-69
2021/08/14 03:48:10;;;;;;;9.95;6.88;;;;;;;;;;5072125;28;20093;-69
2021/08/14 03:50:37;;;;;;;8.52;7.22;;;;;;;;;;5071800;28;20452;-70
2021/08/14 03:53:03;;;;;;;7.72;6.65;;;;;;;;;;5068244;28;20040;-69
2021/08/14 03:55:29;;;;;;;8.85;7.10;;;;;;;;;;5073483;28;20024;-70
2021/08/14 03:57:55;;;;;;;10.98;7.13;;;;;;;;;;5068468;28;20040;-69
2021/08/14 04:00:21;;;;;;;9.90;6.85;;;;;;;;;;5074386;28;20186;-69
2021/08/14 04:02:47;;;;;;;12.23;6.53;;;;;;;;;;5070165;28;20060;-69
2021/08/14 04:05:13;;;;;;;12.00;7.05;;;;;;;;;;5069828;28;20051;-69
2021/08/14 04:07:40;;;;;;;10.02;7.07;;;;;;;;;;5072279;28;20016;-69
2021/08/14 04:10:06;;;;;;;11.93;7.50;;;;;;;;;;5069127;28;20028;-69
2021/08/14 04:12:32;;;;;;;8.30;6.97;;;;;;;;;;5071896;28;20271;-68
2021/08/14 04:14:59;;;;;;;9.50;6.82;;;;;;;;;;5068324;28;20025;-69
2021/08/14 04:17:25;;;;;;;11.57;7.40;;;;;;;;;;5072967;28;20035;-68
2021/08/14 04:19:53;;;;;;;11.02;7.28;;;;;;;;;;5070455;28;20044;-71
2021/08/14 04:22:19;;;;;;;9.55;7.38;;;;;;;;;;5070707;28;20519;-69
2021/08/14 04:24:45;;;;;;;7.53;6.75;;;;;;;;;;5069398;28;20020;-69
2021/08/14 04:27:11;;;;;;;10.75;7.88;;;;;;;;;;5070497;28;20031;-72
2021/08/14 04:29:37;;;;;;;13.02;7.13;;;;;;;;;;5072460;28;20024;-73
2021/08/14 04:32:04;;;;;;;11.65;7.05;;;;;;;;;;5067655;28;20037;-72
2021/08/14 04:34:30;;;;;;;12.07;7.45;;;;;;;;;;5072545;28;20028;-73
2021/08/14 04:36:56;;;;;;;11.57;7.20;;;;;;;;;;5070997;28;20354;-73
2021/08/14 04:39:22;;;;;;;11.27;7.57;;;;;;;;;;5071283;28;20526;-73
2021/08/14 04:41:48;;;;;;;11.35;6.95;;;;;;;;;;5071660;28;20035;-72
2021/08/14 04:44:14;;;;;;;7.68;6.70;;;;;;;;;;5069279;28;20103;-72
2021/08/14 04:46:41;;;;;;;9.57;6.97;;;;;;;;;;5070827;28;20036;-71
2021/08/14 04:49:07;;;;;;;9.15;7.13;;;;;;;;;;5070517;28;20616;-72
2021/08/14 04:51:33;;;;;;;12.63;7.55;;;;;;;;;;5069626;28;20460;-72
2021/08/14 04:53:59;;;;;;;9.27;6.57;;;;;;;;;;5068693;28;20489;-73
2021/08/14 04:56:25;;;;;;;11.70;7.22;;;;;;;;;;5069819;28;20281;-73
2021/08/14 04:58:52;;;;;;;11.43;7.28;;;;;;;;;;5073672;28;20530;-72
2021/08/14 05:01:18;;;;;;;12.52;7.18;;;;;;;;;;5069408;28;20025;-72
2021/08/14 05:03:44;;;;;;;11.48;6.68;;;;;;;;;;5068927;28;20035;-71
2021/08/14 05:06:10;;;;;;;11.15;6.57;;;;;;;;;;5068628;28;20045;-71
2021/08/14 05:08:36;;;;;;;14.13;7.78;;;;;;;;;;5071176;28;20020;-71
2021/08/14 05:11:03;;;;;;;15.55;6.60;;;;;;;;;;5070363;28;20571;-71
2021/08/14 05:13:30;;;;;;;29.63;8.30;;;;;;;;;;5067424;28;20226;-71
2021/08/14 05:15:56;;;;;;;26.95;8.45;;;;;;;;;;5071891;28;20024;-72
2021/08/14 05:18:22;;;;;;;13.23;6.63;;;;;;;;;;5069891;28;20048;-74
2021/08/14 05:20:49;;;;;;;17.25;6.90;;;;;;;;;;5068766;28;20725;-71
2021/08/14 05:23:15;;;;;;;11.15;6.45;;;;;;;;;;5068029;28;20037;-69
2021/08/14 05:25:41;;;;;;;13.98;7.13;;;;;;;;;;5071425;28;20043;-70
2021/08/14 05:28:07;;;;;;;12.18;6.25;;;;;;;;;;5066954;28;20153;-70
2021/08/14 05:30:33;;;;;;;13.70;7.07;;;;;;;;;;5069841;28;20033;-71
2021/08/14 05:32:59;;;;;;;9.93;6.43;;;;;;;;;;5072517;28;20040;-70
2021/08/14 05:35:26;;;;;;;10.23;6.40;;;;;;;;;;5067030;28;20186;-73
2021/08/14 05:37:52;;;;;;;15.68;7.00;;;;;;;;;;5070411;28;20060;-71
2021/08/14 05:40:18;;;;;;;23.98;7.47;;;;;;;;;;5066865;28;20016;-69
2021/08/14 05:42:44;;;;;;;10.45;6.93;;;;;;;;;;5064271;28;20028;-69
2021/08/14 05:45:11;;;;;;;10.10;6.57;;;;;;;;;;5070371;28;20024;-69
2021/08/14 05:47:37;;;;;;;23.95;12.55;;;;;;;;;;5071634;28;20024;-69
2021/08/14 05:50:03;;;;;;;24.27;13.02;;;;;;;;;;5067876;28;20536;-69
2021/08/14 05:52:29;;;;;;;18.75;13.35;;;;;;;;;;5064397;28;20175;-70
2021/08/14 05:54:55;;;;;;;17.90;12.70;;;;;;;;;;5062292;28;20029;-69
2021/08/14 05:57:21;;;;;;;18.02;12.77;;;;;;;;;;5064798;28;20250;-69
2021/08/14 05:59:48;;;;;;;14.98;12.57;;;;;;;;;;5061473;28;20023;-73
2021/08/14 06:02:14;;;;;;;14.32;11.52;;;;;;;;;;5065298;28;20103;-72
2021/08/14 06:04:40;;;;;;;15.98;11.40;;;;;;;;;;5061724;28;20039;-72
2021/08/14 06:07:06;;;;;;;13.88;10.18;;;;;;;;;;5061488;28;20098;-70
2021/08/14 06:09:32;;;;;;;18.95;10.93;;;;;;;;;;5059839;28;20013;-70
2021/08/14 06:11:59;;;;;;;16.42;11.45;;;;;;;;;;5064026;28;20032;-69
2021/08/14 06:14:26;;;;;;;12.05;8.35;;;;;;;;;;5066453;28;20170;-70
2021/08/14 06:16:52;;;;;;;18.23;9.57;;;;;;;;;;5061251;28;20028;-76
2021/08/14 06:19:18;;;;;;;18.27;9.35;;;;;;;;;;5060407;28;20042;-69
2021/08/14 06:21:45;;;;;;;16.58;9.13;;;;;;;;;;5061227;28;20052;-69
2021/08/14 06:24:11;;;;;;;13.45;8.50;;;;;;;;;;5059237;28;20012;-71
2021/08/14 06:26:37;;;;;;;13.60;7.63;;;;;;;;;;5063298;28;20021;-69
2021/08/14 06:29:03;;;;;;;12.52;8.07;;;;;;;;;;5062889;28;20037;-69
2021/08/14 06:31:29;;;;;;;16.42;8.40;;;;;;;;;;5065162;28;20513;-70
2021/08/14 06:33:55;;;;;;;10.40;8.50;;;;;;;;;;5062152;28;20029;-69
2021/08/14 06:36:22;;;;;;;13.70;8.52;;;;;;;;;;5067641;28;20383;-71
2021/08/14 06:38:48;;;;;;;17.27;9.88;;;;;;;;;;5064672;28;20050;-77
2021/08/14 06:41:14;;;;;;;11.95;9.25;;;;;;;;;;5061179;28;20043;-69
2021/08/14 06:43:40;;;;;;;18.27;10.43;;;;;;;;;;5063188;28;20091;-69
2021/08/14 06:46:06;;;;;;;16.00;8.98;;;;;;;;;;5066325;28;20123;-69
2021/08/14 06:48:35;;;;;;;12.32;9.77;;;;;;;;;;5063074;28;20024;-69
2021/08/14 06:51:02;;;;;;;12.35;8.27;;;;;;;;;;5066710;28;20025;-69
2021/08/14 06:53:28;;;;;;;18.33;9.70;;;;;;;;;;5072377;28;20028;-73
2021/08/14 06:55:54;;;;;;;13.73;9.00;;;;;;;;;;5073531;28;20429;-69
2021/08/14 06:58:20;;;;;;;12.98;9.55;;;;;;;;;;5072680;28;20048;-70
2021/08/14 07:00:47;;;;;;;11.48;8.88;;;;;;;;;;5072179;28;20380;-69
2021/08/14 07:03:13;;;;;;;10.40;7.65;;;;;;;;;;5069407;28;20437;-71
2021/08/14 07:05:40;;;;;;;14.40;8.98;;;;;;;;;;5076778;28;20524;-72
2021/08/14 07:08:06;;;;;;;12.77;9.18;;;;;;;;;;5071829;28;20377;-76
2021/08/14 07:10:32;;;;;;;12.63;7.65;;;;;;;;;;5072650;28;20107;-79
2021/08/14 07:12:58;;;;;;;10.02;7.43;;;;;;;;;;5073622;28;20377;-69
2021/08/14 07:15:24;;;;;;;19.80;8.43;;;;;;;;;;5073004;28;20166;-70
2021/08/14 07:17:51;;;;;;;12.15;8.27;;;;;;;;;;5071552;28;20020;-69
2021/08/14 07:20:17;;;;;;;13.52;8.65;;;;;;;;;;5071082;28;20047;-68
2021/08/14 07:22:43;;;;;;;16.45;9.00;;;;;;;;;;5073587;28;20475;-69
2021/08/14 07:25:10;;;;;;;13.73;8.45;;;;;;;;;;5073396;28;20021;-69
2021/08/14 07:27:36;;;;;;;12.38;7.80;;;;;;;;;;5072818;28;20027;-69
2021/08/14 07:30:02;;;;;;;9.93;6.85;;;;;;;;;;5070159;28;20032;-69
2021/08/14 07:32:28;;;;;;;9.07;6.13;;;;;;;;;;5071540;28;20337;-69
2021/08/14 07:34:55;;;;;;;8.52;6.05;;;;;;;;;;5078365;28;20021;-69
2021/08/14 07:37:21;;;;;;;9.75;5.53;;;;;;;;;;5074636;28;20020;-69
2021/08/14 07:39:48;;;;;;;11.68;6.75;;;;;;;;;;5070844;28;20012;-69
2021/08/14 07:42:14;;;;;;;12.55;7.05;;;;;;;;;;5078457;28;20020;-70
2021/08/14 07:44:40;;;;;;;12.40;6.38;;;;;;;;;;5071386;28;20086;-70
2021/08/14 07:47:06;;;;;;;9.40;6.40;;;;;;;;;;5073132;28;20055;-69
2021/08/14 07:49:32;;;;;;;7.05;5.75;;;;;;;;;;5068930;28;20024;-69
2021/08/14 07:51:59;;;;;;;9.07;6.50;;;;;;;;;;5069059;28;20029;-69
2021/08/14 07:54:28;;;;;;;10.23;6.35;;;;;;;;;;5062459;28;20300;-70
2021/08/14 07:56:54;;;;;;;9.48;5.95;;;;;;;;;;5072838;28;20063;-69
2021/08/14 07:59:21;;;;;;;12.57;6.43;;;;;;;;;;5073518;28;20404;-84
2021/08/14 08:01:47;;;;;;;9.50;6.45;;;;;;;;;;5073019;28;20046;-69
2021/08/14 08:04:13;;;;;;;10.95;6.80;;;;;;;;;;5075288;28;20073;-70
2021/08/14 08:06:39;;;;;;;7.45;6.60;;;;;;;;;;5070367;28;20025;-70
2021/08/14 08:09:05;;;;;;;7.22;6.18;;;;;;;;;;5073077;28;20381;-69
2021/08/14 08:11:31;;;;;;;13.40;7.22;;;;;;;;;;5071120;28;20055;-73
2021/08/14 08:13:58;;;;;;;12.02;7.10;;;;;;;;;;5073003;28;20024;-76
2021/08/14 08:16:25;;;;;;;8.50;5.90;;;;;;;;;;5070816;28;20013;-70
2021/08/14 08:18:51;;;;;;;9.65;6.68;;;;;;;;;;5071692;28;20135;-73
2021/08/14 08:21:17;;;;;;;13.38;6.95;;;;;;;;;;5070661;28;20039;-69
2021/08/14 08:23:43;;;;;;;13.18;7.38;;;;;;;;;;5068956;28;20499;-72
2021/08/14 08:26:09;;;;;;;10.10;7.00;;;;;;;;;;5073040;28;20491;-72
2021/08/14 08:28:35;;;;;;;10.85;6.85;;;;;;;;;;5069956;28;20021;-69
2021/08/14 08:31:02;;;;;;;10.48;6.95;;;;;;;;;;5067399;28;20031;-70
2021/08/14 08:33:28;;;;;;;7.28;6.38;;;;;;;;;;5068650;28;20516;-70
2021/08/14 08:35:54;;;;;;;9.85;7.18;;;;;;;;;;5070484;28;20664;-69
2021/08/14 08:38:21;;;;;;;11.52;7.03;;;;;;;;;;5071450;28;20028;-70
2021/08/14 08:40:48;;;;;;;7.40;6.57;;;;;;;;;;5068426;28;20023;-69
2021/08/14 08:43:14;;;;;;;8.82;6.75;;;;;;;;;;5071950;28;20032;-69
2021/08/14 08:45:40;;;;;;;13.80;6.97;;;;;;;;;;5065500;28;20347;-70
2021/08/14 08:48:07;;;;;;;10.48;7.22;;;;;;;;;;5064624;28;20496;-73
2021/08/14 08:50:34;;;;;;;15.40;6.65;;;;;;;;;;5065566;28;20028;-71
2021/08/14 08:53:04;;;;;;;10.77;7.20;;;;;;;;;;5067734;28;20032;-69
2021/08/14 08:55:33;;;;;;;10.88;7.22;;;;;;;;;;5070169;28;20023;-69
2021/08/14 08:57:59;;;;;;;9.77;6.10;;;;;;;;;;5070830;28;20515;-69
2021/08/14 09:00:25;;;;;;;11.45;6.35;;;;;;;;;;5069561;28;20032;-73
2021/08/14 09:03:08;;;;;;;9.63;6.47;;;;;;;;;;5063705;28;20029;-70
2021/08/14 09:05:35;;;;;;;11.85;6.22;;;;;;;;;;5063498;28;20024;-79
2021/08/14 09:08:09;;;;;;;9.80;6.85;;;;;;;;;;5066106;28;20742;-70
2021/08/14 09:10:36;;;;;;;8.70;5.95;;;;;;;;;;5070765;28;20054;-71
2021/08/14 09:13:09;;;;;;;12.27;6.30;;;;;;;;;;5066043;28;20055;-70
2021/08/14 09:15:35;;;;;;;13.63;6.43;;;;;;;;;;5071745;28;20020;-80
2021/08/14 09:18:02;;;;;;;8.70;6.55;;;;;;;;;;5064390;28;20375;-71
2021/08/14 09:20:28;;;;;;;12.52;6.10;;;;;;;;;;5070588;28;20017;-69
2021/08/14 09:23:00;;;;;;;11.65;6.85;;;;;;;;;;5072067;28;20030;-70
2021/08/14 09:25:27;;;;;;;13.98;7.07;;;;;;;;;;5070134;28;20023;-70
2021/08/14 09:28:00;;;;;;;10.95;7.28;;;;;;;;;;5072209;28;20438;-71
2021/08/14 09:30:46;;;;;;;11.75;7.40;;;;;;;;;;5066149;28;20056;-71
2021/08/14 09:33:14;;;;;;;13.02;7.00;;;;;;;;;;5072121;28;20476;-86
2021/08/14 09:35:53;;;;;;;9.85;6.57;;;;;;;;;;5068893;28;20098;-76
2021/08/14 09:38:19;;;;;;;8.98;6.53;;;;;;;;;;5065489;28;20032;-82
2021/08/14 09:40:46;;;;;;;7.25;6.43;;;;;;;;;;5072867;28;20020;-70
2021/08/14 09:43:16;;;;;;;11.20;7.32;;;;;;;;;;5069685;28;20067;-77
2021/08/14 09:45:54;;;;;;;12.90;7.03;;;;;;;;;;5066766;28;20034;-72
2021/08/14 09:48:22;;;;;;;9.32;6.63;;;;;;;;;;5070534;28;20034;-79
2021/08/14 09:50:48;;;;;;;8.40;7.00;;;;;;;;;;5069108;28;20052;-80
2021/08/14 09:53:16;;;;;;;12.40;7.38;;;;;;;;;;5070416;28;20481;-71
2021/08/14 09:55:42;;;;;;;9.43;6.40;;;;;;;;;;5073930;28;20152;-76
2021/08/14 09:58:09;;;;;;;10.57;6.38;;;;;;;;;;5065884;28;20581;-82
2021/08/14 10:00:36;;;;;;;10.38;7.07;;;;;;;;;;5069762;28;20024;-71
2021/08/14 10:03:03;;;;;;;9.52;6.82;;;;;;;;;;5064172;28;20606;-71
2021/08/14 10:05:31;;;;;;;6.65;5.95;;;;;;;;;;5071352;28;20035;-71
2021/08/14 10:07:59;;;;;;;9.85;7.30;;;;;;;;;;5067432;28;20028;-70
2021/08/14 10:10:25;;;;;;;9.73;7.18;;;;;;;;;;5070513;28;20066;-70
2021/08/14 10:12:51;;;;;;;8.80;6.88;;;;;;;;;;5070445;28;20040;-70
2021/08/14 10:15:18;;;;;;;13.07;6.68;;;;;;;;;;5067761;28;20077;-70
2021/08/14 10:17:44;;;;;;;9.27;6.47;;;;;;;;;;5068482;28;20035;-70
2021/08/14 10:20:10;;;;;;;12.30;7.43;;;;;;;;;;5067163;28;20040;-70
2021/08/14 10:22:36;;;;;;;10.27;6.88;;;;;;;;;;5067485;28;20024;-70
2021/08/14 10:25:03;;;;;;;8.60;6.03;;;;;;;;;;5068287;28;20040;-70
2021/08/14 10:27:49;;;;;;;15.95;7.57;;;;;;;;;;5069609;28;20072;-70
2021/08/14 10:30:34;;;;;;;11.48;6.35;;;;;;;;;;5067720;28;20024;-71
2021/08/14 10:33:00;;;;;;;10.85;6.32;;;;;;;;;;5067790;28;20043;-77
2021/08/14 10:35:27;;;;;;;10.70;6.07;;;;;;;;;;5064940;28;20056;-71
2021/08/14 10:37:53;;;;;;;11.85;6.25;;;;;;;;;;5068844;28;20521;-70
2021/08/14 10:40:20;;;;;;;9.65;6.25;;;;;;;;;;5067440;28;20105;-84
2021/08/14 10:42:58;;;;;;;12.55;6.88;;;;;;;;;;5070014;28;20041;-88
2021/08/14 10:45:37;;;;;;;9.30;6.47;;;;;;;;;;5065451;28;20028;-70
2021/08/14 10:48:07;;;;;;;7.10;6.38;;;;;;;;;;5067817;28;20935;-71
2021/08/14 10:50:33;;;;;;;7.72;6.53;;;;;;;;;;5069547;28;20103;-71
2021/08/14 10:53:12;;;;;;;6.80;6.07;;;;;;;;;;5065077;28;20049;-72
2021/08/14 10:55:38;;;;;;;14.18;7.60;;;;;;;;;;5068404;28;20634;-74
2021/08/14 10:58:19;;;;;;;12.95;7.00;;;;;;;;;;5067578;28;20507;-71
2021/08/14 11:00:46;;;;;;;11.98;7.60;;;;;;;;;;5068632;28;20527;-71
2021/08/14 11:03:13;;;;;;;7.65;6.28;;;;;;;;;;5073095;28;20070;-71
2021/08/14 11:05:40;;;;;;;8.57;6.63;;;;;;;;;;5068119;28;20028;-71
2021/08/14 11:08:26;;;;;;;8.48;6.68;;;;;;;;;;5065220;28;20104;-70
2021/08/14 11:10:52;;;;;;;10.32;7.05;;;;;;;;;;5068639;28;20085;-69
2021/08/14 11:13:38;;;;;;;11.02;7.30;;;;;;;;;;5070685;28;20398;-69
2021/08/14 11:16:04;;;;;;;12.70;7.10;;;;;;;;;;5064878;28;20034;-68
2021/08/14 11:19:09;;;;;;;8.48;6.68;;;;;;;;;;5067126;28;20056;-79
2021/08/14 11:21:42;;;;;;;15.07;7.38;;;;;;;;;;4990056;28;20018;-68
2021/08/14 11:24:08;;;;;;;12.10;7.05;;;;;;;;;;4994629;28;20040;-70
2021/08/14 11:26:35;;;;;;;7.90;7.10;;;;;;;;;;5027554;28;20035;-68
2021/08/14 11:29:02;;;;;;;6.75;6.10;;;;;;;;;;5064450;28;20023;-69
2021/08/14 11:31:28;;;;;;;10.02;6.90;;;;;;;;;;5059848;28;20029;-75
2021/08/14 11:34:12;;;;;;;14.88;7.63;;;;;;;;;;5064025;28;20475;-68
2021/08/14 11:36:39;;;;;;;9.52;6.78;;;;;;;;;;5072298;28;20021;-73
2021/08/14 11:39:05;;;;;;;8.13;7.00;;;;;;;;;;5070822;28;20115;-70
2021/08/14 11:41:31;;;;;;;11.23;7.57;;;;;;;;;;5064904;28;20112;-70
2021/08/14 11:44:07;;;;;;;11.52;7.18;;;;;;;;;;5064980;28;20025;-68
2021/08/14 11:46:33;;;;;;;10.32;7.45;;;;;;;;;;5074749;28;20070;-69
2021/08/14 11:49:01;;;;;;;10.20;7.40;;;;;;;;;;5074059;28;20034;-79
2021/08/14 11:51:29;;;;;;;11.32;7.18;;;;;;;;;;5074089;28;20379;-70
2021/08/14 11:54:04;;;;;;;11.98;7.60;;;;;;;;;;5063477;28;20039;-69
2021/08/14 11:56:31;;;;;;;11.38;7.10;;;;;;;;;;5063295;28;20020;-72
2021/08/14 11:58:57;;;;;;;10.10;6.95;;;;;;;;;;5066596;28;20043;-72
2021/08/14 12:01:23;;;;;;;7.38;6.43;;;;;;;;;;5064422;28;20059;-74
2021/08/14 12:03:59;;;;;;;12.20;7.03;;;;;;;;;;5064477;28;20674;-77
2021/08/14 12:06:29;;;;;;;10.43;6.75;;;;;;;;;;5068433;28;20218;-76
2021/08/14 12:08:56;;;;;;;10.77;7.00;;;;;;;;;;5064835;28;20016;-70
2021/08/14 12:11:23;;;;;;;9.15;6.65;;;;;;;;;;5064444;28;20095;-77
2021/08/14 12:14:10;;;;;;;9.80;6.85;;;;;;;;;;5063235;28;20028;-72
2021/08/14 12:16:39;;;;;;;8.45;6.50;;;;;;;;;;5064976;28;20027;-70
2021/08/14 12:19:12;;;;;;;10.02;6.97;;;;;;;;;;5062109;28;20520;-75
2021/08/14 12:21:38;;;;;;;11.05;6.80;;;;;;;;;;5067869;28;20039;-75
2021/08/14 12:24:05;;;;;;;11.50;6.47;;;;;;;;;;5073196;28;20074;-72
2021/08/14 12:26:31;;;;;;;7.90;6.68;;;;;;;;;;5072990;28;20284;-70
2021/08/14 12:29:01;;;;;;;7.00;6.30;;;;;;;;;;5072625;28;20491;-70
2021/08/14 12:31:27;;;;;;;6.43;5.82;;;;;;;;;;5070925;28;20036;-71
2021/08/14 12:33:54;;;;;;;10.63;6.53;;;;;;;;;;5069703;28;20488;-69
2021/08/14 12:36:40;;;;;;;6.80;6.05;;;;;;;;;;5072651;28;20024;-69
2021/08/14 12:39:07;;;;;;;9.13;6.03;;;;;;;;;;5070430;28;20043;-69
2021/08/14 12:41:38;;;;;;;7.05;5.93;;;;;;;;;;5073390;28;20024;-70
2021/08/14 12:44:04;;;;;;;7.77;6.97;;;;;;;;;;5069438;28;20028;-73
2021/08/14 12:46:31;;;;;;;11.95;6.97;;;;;;;;;;5074907;28;20776;-70
2021/08/14 12:49:19;;;;;;;6.75;6.05;;;;;;;;;;5071809;28;20085;-69
2021/08/14 12:51:55;;;;;;;7.78;6.00;;;;;;;;;;5068758;28;20035;-77
2021/08/14 12:54:21;;;;;;;7.57;6.65;;;;;;;;;;5070897;28;20103;-69
2021/08/14 12:56:47;;;;;;;6.72;5.60;;;;;;;;;;5071911;28;20034;-72
2021/08/14 12:59:13;;;;;;;8.65;5.90;;;;;;;;;;5074328;28;20104;-75
2021/08/14 13:01:40;;;;;;;8.73;6.00;;;;;;;;;;5067794;28;20514;-69
2021/08/14 13:04:06;;;;;;;6.75;5.70;;;;;;;;;;5068454;28;20038;-70
2021/08/14 13:06:32;;;;;;;9.77;5.75;;;;;;;;;;5066078;28;20535;-70
2021/08/14 13:08:58;;;;;;;8.98;6.07;;;;;;;;;;5071799;28;20426;-70
2021/08/14 13:11:24;;;;;;;5.85;4.68;;;;;;;;;;5068108;28;20056;-69
2021/08/14 13:13:50;;;;;;;6.88;5.70;;;;;;;;;;5069347;28;20032;-71
2021/08/14 13:16:17;;;;;;;9.07;5.55;;;;;;;;;;5068563;28;20540;-69
2021/08/14 13:18:43;;;;;;;8.05;5.22;;;;;;;;;;5069915;28;20618;-70
2021/08/14 13:21:10;;;;;;;8.70;5.53;;;;;;;;;;5070672;28;20016;-71
2021/08/14 13:23:36;;;;;;;7.30;4.97;;;;;;;;;;5068455;28;20388;-69
2021/08/14 13:26:02;;;;;;;9.15;5.00;;;;;;;;;;5070631;28;20028;-68
2021/08/14 13:28:29;;;;;;;6.45;5.20;;;;;;;;;;5065876;28;20150;-69
2021/08/14 13:30:55;;;;;;;8.13;6.20;;;;;;;;;;5069926;28;20102;-72
2021/08/14 13:33:21;;;;;;;8.32;5.72;;;;;;;;;;5069866;28;20210;-68
2021/08/14 13:35:51;;;;;;;6.80;6.10;;;;;;;;;;5069661;28;20412;-69
2021/08/14 13:38:17;;;;;;;6.70;5.72;;;;;;;;;;5070908;28;20016;-68
2021/08/14 13:40:44;;;;;;;7.25;5.85;;;;;;;;;;5065841;28;20103;-70
2021/08/14 13:43:10;;;;;;;9.90;5.78;;;;;;;;;;5069420;28;20376;-69
2021/08/14 13:45:36;;;;;;;11.77;5.93;;;;;;;;;;5066748;28;20028;-69
2021/08/14 13:48:02;;;;;;;6.65;5.40;;;;;;;;;;5068231;28;20196;-68
2021/08/14 13:50:29;;;;;;;6.72;5.50;;;;;;;;;;5068609;28;20081;-69
2021/08/14 13:52:55;;;;;;;7.90;6.53;;;;;;;;;;5062961;28;20416;-69
2021/08/14 13:55:21;;;;;;;8.75;6.10;;;;;;;;;;5069483;28;20025;-71
2021/08/14 13:57:47;;;;;;;6.97;5.63;;;;;;;;;;5067235;28;20029;-72
2021/08/14 14:00:14;;;;;;;6.45;5.13;;;;;;;;;;5068037;28;20186;-72
2021/08/14 14:02:40;;;;;;;7.28;4.90;;;;;;;;;;5069766;28;20068;-72
2021/08/14 14:05:06;;;;;;;6.25;4.72;;;;;;;;;;5065232;28;20021;-71
2021/08/14 14:07:33;;;;;;;7.90;4.85;;;;;;;;;;5065193;28;20107;-72
2021/08/14 14:09:59;;;;;;;6.50;5.18;;;;;;;;;;5066853;28;20024;-69
2021/08/14 14:12:26;;;;;;;6.55;5.28;;;;;;;;;;5075924;28;20200;-71
2021/08/14 14:14:52;;;;;;;5.45;4.90;;;;;;;;;;5070065;28;20017;-69
2021/08/14 14:17:18;;;;;;;7.72;4.90;;;;;;;;;;5070229;28;20024;-69
2021/08/14 14:19:45;;;;;;;6.95;5.30;;;;;;;;;;5068346;28;20119;-70
2021/08/14 14:22:12;;;;;;;5.53;5.03;;;;;;;;;;5069025;28;20095;-71
2021/08/14 14:24:38;;;;;;;5.22;4.72;;;;;;;;;;5072326;28;20451;-71
2021/08/14 14:27:05;;;;;;;6.13;5.07;;;;;;;;;;5073101;28;20023;-70
2021/08/14 14:29:31;;;;;;;5.35;4.85;;;;;;;;;;5069050;28;20032;-71
2021/08/14 14:31:58;;;;;;;5.20;4.70;;;;;;;;;;5072009;28;20107;-77
2021/08/14 14:34:24;;;;;;;6.43;5.80;;;;;;;;;;5069035;28;20594;-71